Time;durP1;ratioP1;P1;durP2;ratioP2;P2;SDS_P1;SDS_P2;PMS_P1;PMS_P2;Temp;Humidity;BMP_temperature;BMP_pressure;BME280_temperature;BME280_humidity;BME280_pressure;Samples;Min_cycle;Max_cycle;Signal;HPM_P1;HPM_P2
2023/12/05 00:02:02;;;;;;;15.73;13.00;;;;;;;-2.40;100.00;98962.97;5106610;28;20239;-80
2023/12/05 00:04:29;;;;;;;17.47;12.73;;;;;;;-2.48;100.00;98968.19;5103912;28;20188;-81
2023/12/05 00:06:56;;;;;;;16.67;13.13;;;;;;;-2.52;100.00;98974.69;5083407;28;20240;-82
2023/12/05 00:09:23;;;;;;;15.80;13.10;;;;;;;-2.49;100.00;98970.94;5099763;28;20208;-80
2023/12/05 00:11:50;;;;;;;16.47;12.57;;;;;;;-2.51;100.00;98980.75;5095223;28;20196;-79
2023/12/05 00:14:19;;;;;;;17.37;13.70;;;;;;;-2.55;100.00;98987.28;5066388;28;20223;-85
2023/12/05 00:16:46;;;;;;;17.30;14.00;;;;;;;-2.62;100.00;98991.50;5101860;28;20187;-80
2023/12/05 00:19:13;;;;;;;16.70;13.20;;;;;;;-2.56;100.00;98989.06;5091726;28;20275;-80
2023/12/05 00:21:45;;;;;;;17.00;13.53;;;;;;;-2.39;100.00;98987.41;5098743;28;20196;-80
2023/12/05 00:24:12;;;;;;;16.63;13.73;;;;;;;-2.38;100.00;98976.75;5097181;28;20199;-79
2023/12/05 00:26:39;;;;;;;18.87;14.30;;;;;;;-2.36;100.00;98977.44;5089710;28;20210;-80
2023/12/05 00:29:05;;;;;;;20.30;15.10;;;;;;;-2.43;100.00;98967.72;5094773;28;20204;-81
2023/12/05 00:31:32;;;;;;;19.20;14.87;;;;;;;-2.44;100.00;98961.66;5103073;28;20203;-81
2023/12/05 00:33:59;;;;;;;19.73;15.27;;;;;;;-2.48;100.00;98954.25;5112157;28;20217;-81
2023/12/05 00:36:27;;;;;;;19.37;14.67;;;;;;;-2.55;100.00;98951.38;5105348;28;20191;-79
2023/12/05 00:38:53;;;;;;;17.33;13.73;;;;;;;-2.57;100.00;98945.50;5097233;28;20188;-79
2023/12/05 00:41:25;;;;;;;19.57;15.03;;;;;;;-2.58;100.00;98945.63;5089076;28;20191;-80
2023/12/05 00:43:52;;;;;;;20.80;15.63;;;;;;;-2.58;100.00;98938.59;5102556;28;20185;-80
2023/12/05 00:46:21;;;;;;;20.27;15.07;;;;;;;-2.52;100.00;98950.28;5104185;28;20193;-82
2023/12/05 00:48:47;;;;;;;18.67;14.63;;;;;;;-2.63;100.00;98940.84;5097302;28;20188;-82
2023/12/05 00:51:14;;;;;;;19.57;15.13;;;;;;;-2.75;100.00;98940.25;5100013;28;20192;-80
2023/12/05 00:53:44;;;;;;;20.40;14.50;;;;;;;-2.77;100.00;98939.59;5095323;28;20215;-81
2023/12/05 00:56:11;;;;;;;20.73;14.30;;;;;;;-2.78;100.00;98942.38;5097932;28;20288;-79
2023/12/05 00:58:38;;;;;;;17.03;14.27;;;;;;;-2.80;100.00;98941.72;5107320;28;20244;-81
2023/12/05 01:01:05;;;;;;;18.43;14.33;;;;;;;-2.77;100.00;98954.50;5093789;28;20672;-80
2023/12/05 01:03:32;;;;;;;19.47;15.10;;;;;;;-2.76;100.00;98953.53;5078443;28;20188;-79
2023/12/05 01:06:01;;;;;;;17.90;14.57;;;;;;;-2.85;100.00;98964.94;5094693;28;20196;-81
2023/12/05 01:08:28;;;;;;;19.93;15.47;;;;;;;-2.88;100.00;98963.41;5085090;28;20211;-81
2023/12/05 01:10:55;;;;;;;18.77;14.87;;;;;;;-2.94;100.00;98965.84;5099446;28;20212;-80
2023/12/05 01:13:24;;;;;;;20.60;15.93;;;;;;;-2.94;100.00;98969.25;5077255;28;20200;-79
2023/12/05 01:15:51;;;;;;;20.00;15.07;;;;;;;-2.97;100.00;98973.97;5085170;28;20297;-83
2023/12/05 01:18:18;;;;;;;20.17;15.03;;;;;;;-2.96;100.00;98975.63;5101380;28;20204;-81
2023/12/05 01:20:45;;;;;;;25.47;17.27;;;;;;;-3.00;100.00;98972.50;5110924;28;20222;-81
2023/12/05 01:23:11;;;;;;;24.87;17.43;;;;;;;-2.95;100.00;98969.41;5114474;28;20192;-82
2023/12/05 01:25:38;;;;;;;21.67;16.50;;;;;;;-2.97;100.00;98974.81;5109115;28;20203;-80
2023/12/05 01:28:05;;;;;;;22.93;17.33;;;;;;;-3.01;100.00;98972.63;5067222;28;20199;-79
2023/12/05 01:30:32;;;;;;;22.27;15.90;;;;;;;-3.01;100.00;98983.13;5093868;28;20215;-79
2023/12/05 01:32:59;;;;;;;20.10;15.07;;;;;;;-2.94;100.00;98968.44;5081780;28;20206;-80
2023/12/05 01:35:26;;;;;;;21.93;16.53;;;;;;;-2.92;100.00;98969.09;5082585;28;20227;-82
2023/12/05 01:37:55;;;;;;;21.67;17.50;;;;;;;-2.94;100.00;98969.25;5100489;28;20219;-79
2023/12/05 01:40:23;;;;;;;22.43;16.43;;;;;;;-2.86;100.00;98971.13;5102431;28;20227;-80
2023/12/05 01:42:49;;;;;;;21.83;16.53;;;;;;;-2.86;100.00;98969.34;5104769;28;20199;-80
2023/12/05 01:45:16;;;;;;;20.80;15.73;;;;;;;-2.88;100.00;98973.06;5091003;28;20203;-78
2023/12/05 01:47:43;;;;;;;20.07;16.40;;;;;;;-2.79;100.00;98964.31;5103292;28;20279;-79
2023/12/05 01:50:17;;;;;;;19.93;15.27;;;;;;;-2.75;100.00;98969.09;5070170;28;20279;-80
2023/12/05 01:52:48;;;;;;;21.70;16.60;;;;;;;-2.78;100.00;98958.91;5101179;28;20620;-80
2023/12/05 01:55:15;;;;;;;22.77;16.40;;;;;;;-2.75;100.00;98955.16;5079943;28;20209;-80
2023/12/05 01:57:42;;;;;;;20.53;16.10;;;;;;;-2.77;100.00;98959.75;5102534;28;20192;-80
2023/12/05 02:00:15;;;;;;;24.43;17.00;;;;;;;-2.75;100.00;98952.53;5065930;28;20238;-82
2023/12/05 02:02:44;;;;;;;22.67;17.53;;;;;;;-2.75;100.00;98949.91;5093552;28;20203;-82
2023/12/05 02:05:13;;;;;;;23.20;17.17;;;;;;;-2.72;100.00;98952.25;5109111;28;20196;-81
2023/12/05 02:07:41;;;;;;;21.40;16.63;;;;;;;-2.63;100.00;98947.88;5065375;28;20203;-81
2023/12/05 02:10:09;;;;;;;21.23;16.20;;;;;;;-2.61;100.00;98941.50;5070563;28;20281;-80
2023/12/05 02:12:38;;;;;;;20.40;16.27;;;;;;;-2.62;100.00;98937.25;5080105;28;20195;-81
2023/12/05 02:15:07;;;;;;;20.97;16.13;;;;;;;-2.62;100.00;98939.06;5103400;28;20223;-81
2023/12/05 02:17:58;;;;;;;21.13;16.63;;;;;;;-2.66;100.00;98944.59;5077948;28;20196;-80
2023/12/05 02:20:50;;;;;;;21.07;15.67;;;;;;;-2.61;100.00;98935.47;5096655;28;20245;-82
2023/12/05 02:24:01;;;;;;;20.57;16.13;;;;;;;-2.67;100.00;98932.47;5090513;28;20567;-82
2023/12/05 02:26:35;;;;;;;20.50;16.37;;;;;;;-2.72;100.00;98937.34;5081512;28;20294;-79
2023/12/05 02:29:03;;;;;;;23.53;16.90;;;;;;;-2.68;100.00;98943.09;5079012;28;20206;-81
2023/12/05 02:31:30;;;;;;;21.13;17.07;;;;;;;-2.68;100.00;98949.19;5085994;28;20250;-82
2023/12/05 02:33:56;;;;;;;23.90;17.10;;;;;;;-2.70;100.00;98940.63;5103076;28;20199;-81
2023/12/05 02:36:50;;;;;;;22.87;17.07;;;;;;;-2.69;100.00;98942.28;5092468;28;20222;-81
2023/12/05 02:39:27;;;;;;;21.97;16.80;;;;;;;-2.62;100.00;98941.69;5092269;28;20188;-81
2023/12/05 02:41:56;;;;;;;24.00;17.50;;;;;;;-2.66;100.00;98947.19;5096427;28;20191;-79
2023/12/05 02:44:24;;;;;;;20.57;16.03;;;;;;;-2.62;100.00;98939.88;5067582;28;20213;-81
2023/12/05 02:46:51;;;;;;;22.27;17.10;;;;;;;-2.59;100.00;98944.81;5081633;28;20199;-80
2023/12/05 02:49:18;;;;;;;22.83;16.63;;;;;;;-2.61;100.00;98931.00;5098260;28;20200;-80
2023/12/05 02:51:45;;;;;;;22.27;16.87;;;;;;;-2.58;100.00;98930.72;5093030;28;20219;-79
2023/12/05 02:54:12;;;;;;;21.33;17.17;;;;;;;-2.62;100.00;98932.00;5103463;28;20218;-78
2023/12/05 02:56:39;;;;;;;21.27;16.33;;;;;;;-2.62;100.00;98931.19;5108878;28;20222;-80
2023/12/05 02:59:05;;;;;;;22.17;17.30;;;;;;;-2.61;100.00;98924.97;5091908;28;20208;-81
2023/12/05 03:01:37;;;;;;;20.73;16.77;;;;;;;-2.53;100.00;98925.84;5100860;28;20196;-80
2023/12/05 03:04:04;;;;;;;21.60;16.80;;;;;;;-2.51;100.00;98923.88;5111391;28;20203;-81
2023/12/05 03:06:31;;;;;;;21.37;16.47;;;;;;;-2.51;100.00;98926.50;5111416;28;20191;-81
2023/12/05 03:09:02;;;;;;;22.83;18.17;;;;;;;-2.50;100.00;98922.91;5091723;28;20226;-82
2023/12/05 03:11:30;;;;;;;20.93;16.83;;;;;;;-2.48;100.00;98926.22;5101607;28;20199;-81
2023/12/05 03:13:58;;;;;;;22.07;16.77;;;;;;;-2.40;100.00;98920.19;5083533;28;20200;-83
2023/12/05 03:16:26;;;;;;;21.33;17.10;;;;;;;-2.38;100.00;98926.09;5061997;28;20311;-79
2023/12/05 03:18:53;;;;;;;22.23;17.00;;;;;;;-2.37;100.00;98927.72;5099190;28;20202;-80
2023/12/05 03:21:21;;;;;;;20.47;16.97;;;;;;;-2.36;100.00;98926.75;5078948;28;20191;-79
2023/12/05 03:23:49;;;;;;;22.60;17.20;;;;;;;-2.35;100.00;98923.16;5099516;28;20207;-82
2023/12/05 03:26:20;;;;;;;25.30;19.57;;;;;;;-2.26;100.00;98925.69;5101932;28;20211;-81
2023/12/05 03:28:51;;;;;;;22.03;18.20;;;;;;;-2.21;100.00;98927.84;5100487;28;20256;-81
2023/12/05 03:31:22;;;;;;;23.50;19.00;;;;;;;-2.23;100.00;98929.78;5083631;28;20261;-80
2023/12/05 03:33:49;;;;;;;21.13;17.77;;;;;;;-2.11;100.00;98938.22;5094310;28;20268;-80
2023/12/05 03:36:16;;;;;;;22.97;17.70;;;;;;;-2.13;100.00;98935.75;5096034;28;20211;-80
2023/12/05 03:38:43;;;;;;;23.73;18.83;;;;;;;-2.07;100.00;98936.94;5078624;28;20195;-79
2023/12/05 03:41:12;;;;;;;23.07;17.63;;;;;;;-2.05;100.00;98938.41;5097606;28;20191;-80
2023/12/05 03:43:38;;;;;;;23.50;18.10;;;;;;;-2.05;100.00;98942.88;5073207;28;20627;-79
2023/12/05 03:46:05;;;;;;;24.40;18.03;;;;;;;-2.02;100.00;98945.16;5091367;28;20207;-80
2023/12/05 03:48:32;;;;;;;23.70;18.30;;;;;;;-2.07;100.00;98952.69;5088668;28;20211;-78
2023/12/05 03:50:59;;;;;;;25.20;18.30;;;;;;;-2.03;100.00;98952.22;5077980;28;20203;-81
2023/12/05 03:53:26;;;;;;;24.27;19.20;;;;;;;-1.94;100.00;98950.44;5095149;28;20239;-81
2023/12/05 03:55:52;;;;;;;24.53;18.60;;;;;;;-2.06;100.00;98960.41;5097320;28;20228;-80
2023/12/05 03:58:19;;;;;;;25.57;19.70;;;;;;;-2.06;100.00;98955.16;5059453;28;20211;-80
2023/12/05 04:00:49;;;;;;;24.33;18.17;;;;;;;-2.11;100.00;98951.34;5095326;28;20200;-79
2023/12/05 04:03:16;;;;;;;25.53;19.07;;;;;;;-1.99;100.00;98960.59;5092215;28;20200;-79
2023/12/05 04:05:46;;;;;;;25.33;18.97;;;;;;;-2.01;100.00;98949.44;5087498;28;20696;-81
2023/12/05 04:08:13;;;;;;;25.53;18.53;;;;;;;-1.99;100.00;98963.22;5082000;28;20210;-79
2023/12/05 04:10:40;;;;;;;25.73;19.83;;;;;;;-2.00;100.00;98975.50;5073590;28;20204;-80
2023/12/05 04:13:07;;;;;;;26.93;19.73;;;;;;;-1.99;100.00;98968.47;5086059;28;20213;-81
2023/12/05 04:15:34;;;;;;;24.77;18.90;;;;;;;-2.03;100.00;98970.59;5100671;28;20236;-80
2023/12/05 04:18:01;;;;;;;24.97;19.40;;;;;;;-2.07;100.00;98968.44;5095175;28;20283;-80
2023/12/05 04:20:28;;;;;;;25.23;19.50;;;;;;;-2.06;100.00;98959.59;5091743;28;20184;-80
2023/12/05 04:22:55;;;;;;;27.63;19.70;;;;;;;-2.10;100.00;98959.06;5070896;28;20204;-81
2023/12/05 04:25:22;;;;;;;25.80;19.67;;;;;;;-2.09;100.00;98962.50;5089709;28;20212;-80
2023/12/05 04:27:49;;;;;;;27.43;20.10;;;;;;;-2.12;100.00;98954.94;5089501;28;20196;-81
2023/12/05 04:30:16;;;;;;;28.87;19.50;;;;;;;-2.15;100.00;98971.03;5070719;28;20224;-80
2023/12/05 04:32:44;;;;;;;25.80;19.23;;;;;;;-2.15;100.00;98958.72;5095876;28;20218;-81
2023/12/05 04:35:11;;;;;;;26.50;20.47;;;;;;;-2.13;100.00;98967.25;5073512;28;20291;-81
2023/12/05 04:37:41;;;;;;;26.27;18.57;;;;;;;-2.13;100.00;98967.25;5090269;28;20199;-79
2023/12/05 04:40:08;;;;;;;26.57;19.57;;;;;;;-2.18;100.00;98963.44;5103941;28;20203;-81
2023/12/05 04:42:35;;;;;;;29.00;20.13;;;;;;;-2.27;100.00;98960.78;5084163;28;20203;-80
2023/12/05 04:45:02;;;;;;;25.57;19.93;;;;;;;-2.29;100.00;98961.91;5096247;28;20215;-80
2023/12/05 04:47:29;;;;;;;28.50;20.63;;;;;;;-2.28;100.00;98960.91;5089560;28;20204;-82
2023/12/05 04:49:56;;;;;;;27.77;20.33;;;;;;;-2.30;100.00;98957.63;5093610;28;20192;-81
2023/12/05 04:52:23;;;;;;;27.40;20.50;;;;;;;-2.29;100.00;98954.84;5095007;28;20228;-81
2023/12/05 04:54:50;;;;;;;27.93;21.00;;;;;;;-2.25;100.00;98963.25;5084934;28;20210;-80
2023/12/05 04:57:19;;;;;;;26.77;19.87;;;;;;;-2.32;100.00;98964.81;5104937;28;20210;-80
2023/12/05 04:59:46;;;;;;;27.10;20.27;;;;;;;-2.35;100.00;98957.28;5103603;28;20190;-80
2023/12/05 05:02:13;;;;;;;25.90;19.50;;;;;;;-2.34;100.00;98956.31;5104825;28;20203;-79
2023/12/05 05:04:40;;;;;;;25.60;19.60;;;;;;;-2.37;100.00;98954.78;5092924;28;20199;-79
2023/12/05 05:07:07;;;;;;;25.00;19.13;;;;;;;-2.31;100.00;98955.97;5109174;28;20223;-79
2023/12/05 05:09:35;;;;;;;27.37;20.27;;;;;;;-2.37;100.00;98962.66;5096478;28;20227;-79
2023/12/05 05:12:03;;;;;;;28.50;19.67;;;;;;;-2.36;100.00;98956.44;5092611;28;20250;-79
2023/12/05 05:14:30;;;;;;;26.30;19.67;;;;;;;-2.37;100.00;98962.66;5101716;28;20216;-79
2023/12/05 05:16:57;;;;;;;28.10;20.40;;;;;;;-2.34;100.00;98956.31;5100009;28;20212;-79
2023/12/05 05:19:24;;;;;;;27.13;19.63;;;;;;;-2.30;100.00;98961.09;5112946;28;20680;-81
2023/12/05 05:21:51;;;;;;;26.37;20.27;;;;;;;-2.30;100.00;98958.47;5102694;28;20187;-81
2023/12/05 05:24:18;;;;;;;26.10;20.40;;;;;;;-2.30;100.00;98966.34;5109128;28;20215;-81
2023/12/05 05:26:45;;;;;;;28.93;21.17;;;;;;;-2.29;100.00;98967.97;5108949;28;20198;-81
2023/12/05 05:29:11;;;;;;;29.20;20.40;;;;;;;-2.27;100.00;98963.38;5110407;28;20667;-80
2023/12/05 05:31:38;;;;;;;27.93;19.93;;;;;;;-2.22;100.00;98966.38;5112391;28;20269;-80
2023/12/05 05:34:05;;;;;;;28.80;20.93;;;;;;;-2.26;100.00;98962.41;5114406;28;20196;-80
2023/12/05 05:36:32;;;;;;;28.27;21.47;;;;;;;-2.26;100.00;98962.41;5108390;28;20207;-79
2023/12/05 05:39:00;;;;;;;29.10;20.90;;;;;;;-2.25;100.00;98961.44;5109633;28;20188;-81
2023/12/05 05:41:27;;;;;;;30.60;21.60;;;;;;;-2.26;100.00;98964.22;5103849;28;20199;-80
2023/12/05 05:43:53;;;;;;;28.03;20.97;;;;;;;-2.22;100.00;98981.28;5094685;28;20194;-80
2023/12/05 05:46:20;;;;;;;29.13;21.93;;;;;;;-2.23;100.00;98972.59;5073598;28;20204;-79
2023/12/05 05:48:47;;;;;;;30.83;20.90;;;;;;;-2.22;100.00;98981.28;5078318;28;20227;-82
2023/12/05 05:51:14;;;;;;;30.13;20.80;;;;;;;-2.18;100.00;98976.56;5080919;28;20184;-79
2023/12/05 05:53:41;;;;;;;29.67;21.77;;;;;;;-2.19;100.00;98977.56;5096580;28;20188;-79
2023/12/05 05:56:08;;;;;;;29.90;21.13;;;;;;;-2.25;100.00;98982.44;5096200;28;20210;-82
2023/12/05 05:58:35;;;;;;;30.97;23.57;;;;;;;-2.22;100.00;98982.13;5066572;28;20204;-80
2023/12/05 06:01:02;;;;;;;30.63;22.03;;;;;;;-2.25;100.00;98984.25;5086815;28;20196;-80
2023/12/05 06:03:30;;;;;;;29.67;21.83;;;;;;;-2.23;100.00;98988.34;5101425;28;20249;-81
2023/12/05 06:06:01;;;;;;;30.77;21.90;;;;;;;-2.22;100.00;98989.16;5099456;28;20192;-81
2023/12/05 06:08:28;;;;;;;29.47;21.43;;;;;;;-2.24;100.00;98986.69;5078824;28;20192;-81
2023/12/05 06:10:57;;;;;;;28.67;21.57;;;;;;;-2.20;100.00;98983.78;5098387;28;20230;-82
2023/12/05 06:13:23;;;;;;;28.63;21.77;;;;;;;-2.20;100.00;98984.59;5083645;28;20197;-80
2023/12/05 06:15:51;;;;;;;32.60;22.37;;;;;;;-2.16;100.00;98991.19;5101957;28;20263;-80
2023/12/05 06:18:17;;;;;;;29.20;22.20;;;;;;;-2.21;100.00;98996.06;5095315;28;20275;-80
2023/12/05 06:20:44;;;;;;;27.70;21.30;;;;;;;-2.17;100.00;99010.53;5100382;28;20196;-80
2023/12/05 06:23:11;;;;;;;30.17;22.90;;;;;;;-2.19;100.00;99004.59;5104518;28;20253;-79
2023/12/05 06:25:39;;;;;;;30.17;22.13;;;;;;;-2.16;100.00;99006.09;5095136;28;20244;-80
2023/12/05 06:28:06;;;;;;;31.13;22.50;;;;;;;-2.14;100.00;99004.13;5099995;28;20276;-80
2023/12/05 06:30:32;;;;;;;31.83;22.50;;;;;;;-2.11;100.00;99014.34;5079329;28;20184;-80
2023/12/05 06:32:59;;;;;;;30.80;22.67;;;;;;;-2.12;100.00;99010.91;5098528;28;20245;-80
2023/12/05 06:35:26;;;;;;;30.70;22.50;;;;;;;-2.13;100.00;99011.88;5099090;28;20188;-81
2023/12/05 06:37:53;;;;;;;29.87;21.43;;;;;;;-2.13;100.00;99011.88;5095454;28;20188;-81
2023/12/05 06:40:20;;;;;;;30.57;22.80;;;;;;;-2.11;100.00;99014.34;5099794;28;20202;-82
2023/12/05 06:42:46;;;;;;;28.53;21.83;;;;;;;-2.10;100.00;99019.41;5060813;28;20200;-81
2023/12/05 06:45:13;;;;;;;29.33;22.03;;;;;;;-2.14;100.00;99012.00;5087032;28;20205;-81
2023/12/05 06:47:40;;;;;;;30.80;21.87;;;;;;;-2.15;100.00;99013.84;5076629;28;20197;-80
2023/12/05 06:50:10;;;;;;;29.23;21.40;;;;;;;-2.09;100.00;99015.00;5078180;28;20188;-80
2023/12/05 06:52:40;;;;;;;31.40;22.10;;;;;;;-2.06;100.00;99027.84;5089449;28;20237;-82
2023/12/05 06:55:08;;;;;;;31.50;22.10;;;;;;;-2.02;100.00;99032.63;5098438;28;20206;-80
2023/12/05 06:57:35;;;;;;;31.00;22.97;;;;;;;-2.02;100.00;99034.41;5091287;28;20733;-80
2023/12/05 07:00:03;;;;;;;33.17;23.10;;;;;;;-2.04;100.00;99044.22;5072251;28;20479;-79
2023/12/05 07:02:30;;;;;;;33.20;23.57;;;;;;;-2.01;100.00;99036.06;5109725;28;20195;-80
2023/12/05 07:04:58;;;;;;;30.40;22.87;;;;;;;-2.02;100.00;99035.25;5082122;28;20199;-79
2023/12/05 07:07:25;;;;;;;32.43;23.73;;;;;;;-1.91;100.00;99031.50;5108952;28;20282;-79
2023/12/05 07:09:52;;;;;;;33.27;24.20;;;;;;;-1.93;100.00;99028.25;5101632;28;20215;-80
2023/12/05 07:12:19;;;;;;;29.83;22.77;;;;;;;-1.85;100.00;99038.78;5073739;28;20253;-80
2023/12/05 07:14:46;;;;;;;31.50;22.93;;;;;;;-1.78;100.00;99037.19;5109130;28;20200;-79
2023/12/05 07:17:13;;;;;;;31.67;23.47;;;;;;;-1.83;100.00;99021.91;5105096;28;20223;-80
2023/12/05 07:19:40;;;;;;;32.03;23.40;;;;;;;-1.76;100.00;99040.47;5088538;28;20198;-78
2023/12/05 07:22:07;;;;;;;31.03;22.93;;;;;;;-1.72;100.00;99043.59;5112209;28;20223;-79
2023/12/05 07:24:33;;;;;;;30.77;21.90;;;;;;;-1.74;100.00;99032.44;5107607;28;20208;-81
2023/12/05 07:27:00;;;;;;;30.87;22.40;;;;;;;-1.64;100.00;99025.28;5095123;28;20299;-84
2023/12/05 07:29:27;;;;;;;29.30;21.57;;;;;;;-1.66;100.00;99025.44;5094755;28;20249;-80
2023/12/05 07:31:54;;;;;;;31.97;22.90;;;;;;;-1.62;100.00;99034.66;5097657;28;20195;-81
2023/12/05 07:34:21;;;;;;;31.20;22.77;;;;;;;-1.54;100.00;99039.13;5093746;28;20195;-80
2023/12/05 07:36:48;;;;;;;33.60;24.43;;;;;;;-1.47;100.00;99045.38;5092337;28;20212;-80
2023/12/05 07:39:15;;;;;;;30.10;21.97;;;;;;;-1.39;100.00;99029.66;5092003;28;20192;-80
2023/12/05 07:41:41;;;;;;;28.73;22.10;;;;;;;-1.34;100.00;99024.75;5091275;28;20188;-82
2023/12/05 07:44:10;;;;;;;27.83;21.43;;;;;;;-1.33;100.00;99026.41;5084640;28;20255;-80
2023/12/05 07:46:40;;;;;;;30.23;22.40;;;;;;;-1.28;100.00;99028.56;5100471;28;20249;-80
2023/12/05 07:49:08;;;;;;;31.43;23.27;;;;;;;-1.22;100.00;99027.94;5099357;28;20209;-80
2023/12/05 07:51:35;;;;;;;38.30;27.30;;;;;;;-1.16;100.00;99029.91;5091703;28;20223;-80
2023/12/05 07:54:05;;;;;;;31.60;24.27;;;;;;;-1.19;100.00;99025.78;5088170;28;20199;-79
2023/12/05 07:56:32;;;;;;;33.23;23.37;;;;;;;-1.17;100.00;99023.00;5099125;28;20216;-80
2023/12/05 07:58:59;;;;;;;28.93;22.10;;;;;;;-1.20;100.00;99011.00;5097885;28;20198;-80
2023/12/05 08:01:25;;;;;;;30.10;22.57;;;;;;;-1.19;100.00;99023.16;5100195;28;20265;-79
2023/12/05 08:03:53;;;;;;;31.30;23.37;;;;;;;-1.22;100.00;99020.03;5094028;28;20343;-80
2023/12/05 08:06:20;;;;;;;31.20;23.77;;;;;;;-1.28;100.00;99028.56;5074498;28;20193;-79
2023/12/05 08:08:47;;;;;;;30.73;22.50;;;;;;;-1.31;100.00;99031.50;5094719;28;20200;-81
2023/12/05 08:11:14;;;;;;;34.57;25.47;;;;;;;-1.37;100.00;99035.59;5095533;28;20257;-80
2023/12/05 08:13:41;;;;;;;35.13;25.90;;;;;;;-1.31;100.00;99045.47;5106195;28;20198;-78
2023/12/05 08:16:08;;;;;;;31.37;22.70;;;;;;;-1.21;100.00;99040.88;5099951;28;20675;-78
2023/12/05 08:18:35;;;;;;;31.50;23.47;;;;;;;-1.10;100.00;99050.28;5102780;28;20199;-81
2023/12/05 08:21:02;;;;;;;32.50;24.33;;;;;;;-1.02;100.00;99053.78;5107462;28;20191;-80
2023/12/05 08:23:29;;;;;;;32.87;23.90;;;;;;;-0.90;100.00;99059.56;5103786;28;20208;-80
2023/12/05 08:25:55;;;;;;;31.00;23.13;;;;;;;-0.76;100.00;99071.28;5109528;28;20194;-80
2023/12/05 08:28:22;;;;;;;31.40;23.50;;;;;;;-0.70;100.00;99065.38;5103537;28;20196;-80
2023/12/05 08:30:49;;;;;;;32.90;22.67;;;;;;;-0.46;100.00;99060.13;5085402;28;20683;-79
2023/12/05 08:33:16;;;;;;;57.40;34.93;;;;;;;-0.33;100.00;99067.56;5100174;28;20197;-80
2023/12/05 08:35:43;;;;;;;46.80;29.53;;;;;;;-0.23;100.00;99071.66;5096205;28;20208;-80
2023/12/05 08:38:10;;;;;;;52.23;33.70;;;;;;;-0.04;100.00;99070.50;5104845;28;20222;-78
2023/12/05 08:40:38;;;;;;;84.47;56.77;;;;;;;0.16;100.00;99079.69;5100305;28;20778;-79
2023/12/05 08:43:05;;;;;;;44.80;30.50;;;;;;;0.21;100.00;99073.94;5104414;28;20202;-81
2023/12/05 08:45:32;;;;;;;41.10;27.87;;;;;;;0.20;100.00;99083.66;5101763;28;20195;-79
2023/12/05 08:47:58;;;;;;;40.07;27.17;;;;;;;0.13;100.00;99076.59;5095722;28;20300;-81
2023/12/05 08:50:26;;;;;;;35.13;24.30;;;;;;;0.08;100.00;99082.34;5108167;28;20203;-82
2023/12/05 08:52:52;;;;;;;37.33;25.60;;;;;;;0.03;100.00;99079.38;5111173;28;20231;-80
2023/12/05 08:55:20;;;;;;;30.93;23.03;;;;;;;-0.03;100.00;99072.97;5103159;27;20188;-80
2023/12/05 08:57:46;;;;;;;48.17;34.67;;;;;;;0.02;100.00;99083.00;5101170;28;20219;-81
2023/12/05 09:00:13;;;;;;;79.00;42.80;;;;;;;-0.02;100.00;99082.53;5106092;28;20194;-81
2023/12/05 09:02:40;;;;;;;36.90;25.57;;;;;;;-0.09;100.00;99078.88;5101619;28;20210;-80
2023/12/05 09:05:07;;;;;;;32.60;24.60;;;;;;;-0.05;100.00;99082.03;5095517;28;20193;-80
2023/12/05 09:07:34;;;;;;;46.53;29.50;;;;;;;0.00;100.00;99082.38;5102523;28;20191;-81
2023/12/05 09:10:01;;;;;;;52.00;32.40;;;;;;;0.04;100.00;99072.31;5109814;28;20268;-79
2023/12/05 09:12:28;;;;;;;31.07;24.40;;;;;;;-0.05;100.00;99082.03;5109972;28;20188;-78
2023/12/05 09:14:55;;;;;;;43.23;30.30;;;;;;;-0.19;100.00;99077.44;5103605;28;20195;-80
2023/12/05 09:17:21;;;;;;;31.90;24.53;;;;;;;-0.29;100.00;99077.59;5098710;28;20234;-81
2023/12/05 09:19:50;;;;;;;45.17;32.13;;;;;;;-0.29;100.00;99084.66;5102450;28;20196;-83
2023/12/05 09:22:17;;;;;;;39.17;28.13;;;;;;;-0.25;100.00;99078.91;5099768;28;20744;-81
2023/12/05 09:24:44;;;;;;;31.57;24.03;;;;;;;-0.27;100.00;99075.59;5100314;28;20192;-79
2023/12/05 09:27:11;;;;;;;32.10;24.07;;;;;;;-0.25;100.00;99081.53;5085700;28;20204;-80
2023/12/05 09:29:38;;;;;;;32.63;24.53;;;;;;;-0.24;100.00;99090.25;5076751;28;20285;-80
2023/12/05 09:32:17;;;;;;;32.17;24.23;;;;;;;-0.30;100.00;99096.16;5101168;28;20198;-78
2023/12/05 09:34:45;;;;;;;32.63;24.10;;;;;;;-0.26;100.00;99100.13;5099121;28;20217;-80
2023/12/05 09:37:12;;;;;;;30.43;22.33;;;;;;;-0.24;100.00;99096.34;5094770;28;20231;-79
2023/12/05 09:39:40;;;;;;;30.27;22.37;;;;;;;-0.23;100.00;99105.03;5096709;28;20184;-80
2023/12/05 09:42:10;;;;;;;56.17;37.20;;;;;;;-0.20;100.00;99102.09;5088056;28;20208;-81
2023/12/05 09:44:45;;;;;;;36.93;27.33;;;;;;;-0.21;100.00;99108.34;5098046;28;20202;-80
2023/12/05 09:47:16;;;;;;;31.33;23.83;;;;;;;-0.15;100.00;99099.81;5095881;28;20191;-80
2023/12/05 09:49:42;;;;;;;31.97;23.17;;;;;;;-0.16;100.00;99104.25;5107777;28;20192;-80
2023/12/05 09:52:10;;;;;;;32.43;23.53;;;;;;;-0.10;100.00;99095.69;5100621;28;20231;-80
2023/12/05 09:54:43;;;;;;;34.07;24.50;;;;;;;-0.14;100.00;99097.00;5107691;28;20257;-80
2023/12/05 09:57:12;;;;;;;32.57;24.23;;;;;;;-0.18;100.00;99098.31;5084618;28;20219;-79
2023/12/05 09:59:43;;;;;;;31.70;24.57;;;;;;;-0.09;100.00;99094.69;5096389;28;20187;-79
2023/12/05 10:02:12;;;;;;;31.40;24.17;;;;;;;-0.02;100.00;99084.31;5099462;28;20191;-78
2023/12/05 10:04:43;;;;;;;32.20;24.10;;;;;;;-0.02;100.00;99094.88;5102831;28;20195;-80
2023/12/05 10:07:12;;;;;;;32.87;25.23;;;;;;;0.10;100.00;99083.00;5095643;28;20278;-79
2023/12/05 10:09:40;;;;;;;33.23;25.73;;;;;;;0.07;100.00;99085.16;5103942;28;20221;-80
2023/12/05 10:12:08;;;;;;;31.43;24.17;;;;;;;-0.03;100.00;99082.69;5096805;28;20192;-80
2023/12/05 10:14:36;;;;;;;31.40;23.57;;;;;;;-0.09;100.00;99088.59;5102084;28;20245;-79
2023/12/05 10:17:03;;;;;;;29.87;22.80;;;;;;;-0.13;100.00;99082.84;5098835;28;20219;-79
2023/12/05 10:19:31;;;;;;;32.80;24.37;;;;;;;-0.09;100.00;99084.16;5096099;28;20266;-79
2023/12/05 10:21:58;;;;;;;29.87;23.07;;;;;;;-0.03;100.00;99086.13;5098397;28;20208;-79
2023/12/05 10:24:44;;;;;;;31.27;23.00;;;;;;;-0.07;100.00;99076.94;5092604;28;20279;-80
2023/12/05 10:27:11;;;;;;;31.90;24.07;;;;;;;-0.05;100.00;99079.41;5111516;27;20196;-79
2023/12/05 10:29:41;;;;;;;32.47;24.03;;;;;;;-0.02;100.00;99084.31;5102349;28;20188;-80
2023/12/05 10:32:11;;;;;;;32.77;24.50;;;;;;;0.02;100.00;99082.19;5095576;28;20210;-79
2023/12/05 10:34:48;;;;;;;31.77;24.53;;;;;;;0.15;100.00;99078.06;5100855;28;20191;-80
2023/12/05 10:37:26;;;;;;;28.83;22.77;;;;;;;0.31;100.00;99080.69;5096893;28;20216;-79
2023/12/05 10:39:55;;;;;;;31.90;23.20;;;;;;;0.28;100.00;99077.56;5092238;28;20200;-80
2023/12/05 10:42:27;;;;;;;31.47;23.17;;;;;;;0.29;100.00;99069.47;5096649;28;20221;-80
2023/12/05 10:44:54;;;;;;;32.67;24.50;;;;;;;0.33;100.00;99062.03;5111246;28;20203;-78
2023/12/05 10:47:20;;;;;;;31.07;22.70;;;;;;;0.32;100.00;99058.63;5111422;28;20191;-79
2023/12/05 10:49:48;;;;;;;30.17;22.93;;;;;;;0.34;100.00;99053.97;5107037;28;20191;-78
2023/12/05 10:52:15;;;;;;;31.77;23.50;;;;;;;0.36;100.00;99048.56;5110884;28;20276;-78
2023/12/05 10:54:44;;;;;;;31.17;23.33;;;;;;;0.29;100.00;99045.75;5106100;28;20214;-79
2023/12/05 10:57:11;;;;;;;31.37;23.73;;;;;;;0.26;100.00;99043.47;5101703;28;20201;-79
2023/12/05 10:59:40;;;;;;;31.47;23.63;;;;;;;0.27;100.00;99039.84;5103133;28;20195;-78
2023/12/05 11:02:14;;;;;;;34.07;25.33;;;;;;;0.26;100.00;99040.81;5100373;28;20254;-79
2023/12/05 11:04:42;;;;;;;31.97;23.87;;;;;;;0.28;100.00;99033.56;5100629;28;20277;-78
2023/12/05 11:07:12;;;;;;;31.90;24.63;;;;;;;0.34;100.00;99030.25;5101147;28;20226;-79
2023/12/05 11:09:42;;;;;;;31.40;24.17;;;;;;;0.37;100.00;99026.47;5097450;28;20243;-77
2023/12/05 11:12:10;;;;;;;33.30;24.50;;;;;;;0.40;100.00;99029.59;5099745;28;20197;-77
2023/12/05 11:14:41;;;;;;;34.67;25.23;;;;;;;0.45;100.00;99021.19;5096928;28;20194;-78